Pagina principale
METAR-TAF:

METAR-TAF

Aeroporti :

Waterbury-Oxford Airport

Oxford, Connecticut, Stati Uniti

latitudine: 41-29N, longitudine: 073-08W, altezza: 222 m

Osservazione

Il bollettino è stato emesso 51 minuti fa, alle 21:51 UTC
Vento 14 kt da nord/nord-ovest con raffiche fino a 23 kt
Temperature -1°C
Umidità 74%
Pressione 1014 hPa
Visibilità: 16.1 km
Nuvoloso ad un'altezza di 3100 ft

METAR: KOXC 182151Z 33014G23KT 10SM BKN031 M01/M05 A2993 RMK AO2 PRESRR SLP155 T10111050

Ora: 17:42 (22:42 UTC)


TAF: mancante

Osservazioni e previsioni meteorologiche di più di 4000 aeroporti (messaggi METAR e TAF).

Le stazioni disponibili sono rappresentate dai dischi gialli e rossi sulla carta.

Puntare il mouse per vedere il nome della stazione.

Clicca sopra per visualizzare le osservazioni e previsioni meteorologiche.

Per cambiare la mappa : fare clic sui pulsanti verdi con una croce nera per ingrandire, il pulsante verde con un trattino per diminuire, o sulla freccia verde per le mappe adiacenti.


METAR-TAF: